20:40
Airports
Links
Donate
Help keep this website running!
PayPal
Bitcoin
METAR
LICG 221755Z 17005KT CAVOK 21/14 Q1019 RMK SKC VIS MIN 9999 WIND THR08 /////KT WIND THR21 19001KT BLU
Current Weather Conditions at LICG
VFR 17:55:00 22-09-17
Altimeter:30.09 hg
Temp:21.0°c 70°f
Dew point:14.0°c 57°f
Wind:5 knots, 5.8 mph, 3 m/s, from 170°
Visibility:6.21 statute miles
(CAVOK)
Past METAR reports
VFR 16:55:00 22-09-17
Altimeter:30.09 hg
Temp:23.0°c 73°f
Dew point:14.0°c 57°f
Wind:6 knots, 6.9 mph, 3 m/s, from 160°
Visibility:6.21 statute miles
(CAVOK)
LICG 221655Z 16006KT CAVOK 23/14 Q1019 RMK FEW FEW200 VIS MIN 9999 WIND THR08 /////KT WIND THR21 12003KT BLU
VFR 15:55:00 22-09-17
Altimeter:30.09 hg
Temp:24.0°c 75°f
Dew point:14.0°c 57°f
Wind:11 knots, 12.7 mph, 6 m/s, from 180°
Visibility:6.21 statute miles
(CAVOK)
LICG 221555Z 18011KT CAVOK 24/14 Q1019 RMK SKC VIS MIN 9999 WIND THR08 /////KT WIND THR21 20011KT BLU
VFR 14:55:00 22-09-17
Altimeter:30.09 hg
Temp:24.0°c 75°f
Dew point:12.0°c 54°f
Wind:12 knots, 13.8 mph, 6 m/s, from 170°
Visibility:6.21 statute miles
(CAVOK)
LICG 221455Z 17012KT CAVOK 24/12 Q1019 RMK SKC VIS MIN 9999 WIND THR08 /////KT WIND THR21 20011KT BLU
TAF
TAF LICG 221700Z 2218/2303 16008KT CAVOK
Forecast at LICG
18:00 22-09-17 to 03:00 23-09-17
NSW
Wind:8 Knots from 160°
Visibility:6.21 statute miles
NSC